sensor_id;sensor_type;location;lat;lon;timestamp;P1;durP1;ratioP1;P2;durP2;ratioP2
18425;SDS011;9340;48.756;9.226;2023-02-15T00:01:48;19.53;;;15.73;;
18425;SDS011;9340;48.756;9.226;2023-02-15T00:04:15;24.30;;;16.63;;
18425;SDS011;9340;48.756;9.226;2023-02-15T00:06:43;21.73;;;16.10;;
18425;SDS011;9340;48.756;9.226;2023-02-15T00:09:10;21.30;;;16.20;;
18425;SDS011;9340;48.756;9.226;2023-02-15T00:11:37;19.47;;;15.10;;
18425;SDS011;9340;48.756;9.226;2023-02-15T00:14:08;21.03;;;15.03;;
18425;SDS011;9340;48.756;9.226;2023-02-15T00:16:37;21.93;;;15.80;;
18425;SDS011;9340;48.756;9.226;2023-02-15T00:19:05;18.60;;;14.93;;
18425;SDS011;9340;48.756;9.226;2023-02-15T00:21:33;22.13;;;16.30;;
18425;SDS011;9340;48.756;9.226;2023-02-15T00:24:01;20.33;;;14.77;;
18425;SDS011;9340;48.756;9.226;2023-02-15T00:26:29;20.17;;;15.17;;
18425;SDS011;9340;48.756;9.226;2023-02-15T00:28:56;19.60;;;15.63;;
18425;SDS011;9340;48.756;9.226;2023-02-15T00:31:24;21.00;;;15.47;;
18425;SDS011;9340;48.756;9.226;2023-02-15T00:33:51;17.83;;;13.87;;
18425;SDS011;9340;48.756;9.226;2023-02-15T00:36:19;22.40;;;15.73;;
18425;SDS011;9340;48.756;9.226;2023-02-15T00:38:46;21.53;;;16.13;;
18425;SDS011;9340;48.756;9.226;2023-02-15T00:41:12;20.37;;;14.53;;
18425;SDS011;9340;48.756;9.226;2023-02-15T00:43:39;19.57;;;14.50;;
18425;SDS011;9340;48.756;9.226;2023-02-15T00:46:05;18.13;;;13.63;;
18425;SDS011;9340;48.756;9.226;2023-02-15T00:48:32;21.43;;;15.03;;
18425;SDS011;9340;48.756;9.226;2023-02-15T00:50:59;19.90;;;15.67;;
18425;SDS011;9340;48.756;9.226;2023-02-15T00:53:28;19.10;;;14.57;;
18425;SDS011;9340;48.756;9.226;2023-02-15T00:55:55;19.70;;;14.93;;
18425;SDS011;9340;48.756;9.226;2023-02-15T00:58:22;19.13;;;13.93;;
18425;SDS011;9340;48.756;9.226;2023-02-15T01:00:49;20.77;;;15.73;;
18425;SDS011;9340;48.756;9.226;2023-02-15T01:03:17;20.13;;;14.97;;
18425;SDS011;9340;48.756;9.226;2023-02-15T01:05:46;21.43;;;15.30;;
18425;SDS011;9340;48.756;9.226;2023-02-15T01:08:14;20.97;;;15.50;;
18425;SDS011;9340;48.756;9.226;2023-02-15T01:10:42;21.97;;;15.47;;
18425;SDS011;9340;48.756;9.226;2023-02-15T01:13:12;19.10;;;15.03;;
18425;SDS011;9340;48.756;9.226;2023-02-15T01:15:40;20.80;;;15.23;;
18425;SDS011;9340;48.756;9.226;2023-02-15T01:18:06;20.10;;;15.63;;
18425;SDS011;9340;48.756;9.226;2023-02-15T01:20:34;20.13;;;14.83;;
18425;SDS011;9340;48.756;9.226;2023-02-15T01:23:04;22.07;;;15.17;;
18425;SDS011;9340;48.756;9.226;2023-02-15T01:25:32;22.33;;;15.77;;
18425;SDS011;9340;48.756;9.226;2023-02-15T01:28:01;20.90;;;15.67;;
18425;SDS011;9340;48.756;9.226;2023-02-15T01:30:28;22.70;;;15.63;;
18425;SDS011;9340;48.756;9.226;2023-02-15T01:32:55;20.47;;;15.60;;
18425;SDS011;9340;48.756;9.226;2023-02-15T01:35:22;22.47;;;16.10;;
18425;SDS011;9340;48.756;9.226;2023-02-15T01:37:49;20.20;;;15.10;;
18425;SDS011;9340;48.756;9.226;2023-02-15T01:40:16;18.70;;;15.03;;
18425;SDS011;9340;48.756;9.226;2023-02-15T01:42:44;20.23;;;15.40;;
18425;SDS011;9340;48.756;9.226;2023-02-15T01:45:16;19.30;;;14.57;;
18425;SDS011;9340;48.756;9.226;2023-02-15T01:47:47;21.40;;;17.10;;
18425;SDS011;9340;48.756;9.226;2023-02-15T01:50:18;20.53;;;15.70;;
18425;SDS011;9340;48.756;9.226;2023-02-15T01:52:50;18.97;;;14.70;;
18425;SDS011;9340;48.756;9.226;2023-02-15T01:55:20;19.57;;;14.67;;
18425;SDS011;9340;48.756;9.226;2023-02-15T01:57:49;18.37;;;15.43;;
18425;SDS011;9340;48.756;9.226;2023-02-15T02:00:18;23.13;;;16.03;;
18425;SDS011;9340;48.756;9.226;2023-02-15T02:02:46;19.87;;;15.70;;
18425;SDS011;9340;48.756;9.226;2023-02-15T02:05:16;22.20;;;16.03;;
18425;SDS011;9340;48.756;9.226;2023-02-15T02:07:43;19.50;;;15.37;;
18425;SDS011;9340;48.756;9.226;2023-02-15T02:10:13;22.30;;;15.93;;
18425;SDS011;9340;48.756;9.226;2023-02-15T02:12:42;21.50;;;15.53;;
18425;SDS011;9340;48.756;9.226;2023-02-15T02:15:12;23.23;;;16.47;;
18425;SDS011;9340;48.756;9.226;2023-02-15T02:17:42;25.03;;;17.33;;
18425;SDS011;9340;48.756;9.226;2023-02-15T02:20:25;23.77;;;16.63;;
18425;SDS011;9340;48.756;9.226;2023-02-15T02:23:08;21.30;;;15.67;;
18425;SDS011;9340;48.756;9.226;2023-02-15T02:26:16;19.70;;;14.47;;
18425;SDS011;9340;48.756;9.226;2023-02-15T02:29:05;17.33;;;13.87;;
18425;SDS011;9340;48.756;9.226;2023-02-15T02:32:01;21.67;;;16.33;;
18425;SDS011;9340;48.756;9.226;2023-02-15T02:34:46;20.67;;;15.47;;
18425;SDS011;9340;48.756;9.226;2023-02-15T02:37:20;19.07;;;15.07;;
18425;SDS011;9340;48.756;9.226;2023-02-15T02:39:52;22.57;;;15.90;;
18425;SDS011;9340;48.756;9.226;2023-02-15T02:42:25;23.40;;;16.87;;
18425;SDS011;9340;48.756;9.226;2023-02-15T02:44:57;22.20;;;16.80;;
18425;SDS011;9340;48.756;9.226;2023-02-15T02:47:30;21.40;;;16.00;;
18425;SDS011;9340;48.756;9.226;2023-02-15T02:50:02;25.60;;;18.13;;
18425;SDS011;9340;48.756;9.226;2023-02-15T02:52:35;21.70;;;16.40;;
18425;SDS011;9340;48.756;9.226;2023-02-15T02:55:06;21.13;;;15.70;;
18425;SDS011;9340;48.756;9.226;2023-02-15T02:57:40;22.83;;;15.47;;
18425;SDS011;9340;48.756;9.226;2023-02-15T03:00:14;20.67;;;15.13;;
18425;SDS011;9340;48.756;9.226;2023-02-15T03:02:43;22.13;;;16.70;;
18425;SDS011;9340;48.756;9.226;2023-02-15T03:05:15;22.67;;;16.93;;
18425;SDS011;9340;48.756;9.226;2023-02-15T03:07:47;20.60;;;14.83;;
18425;SDS011;9340;48.756;9.226;2023-02-15T03:10:16;21.30;;;15.60;;
18425;SDS011;9340;48.756;9.226;2023-02-15T03:12:46;22.17;;;15.70;;
18425;SDS011;9340;48.756;9.226;2023-02-15T03:15:14;22.67;;;15.83;;
18425;SDS011;9340;48.756;9.226;2023-02-15T03:17:46;23.07;;;16.07;;
18425;SDS011;9340;48.756;9.226;2023-02-15T03:20:17;22.57;;;16.73;;
18425;SDS011;9340;48.756;9.226;2023-02-15T03:22:51;23.00;;;15.30;;
18425;SDS011;9340;48.756;9.226;2023-02-15T03:25:22;21.63;;;16.53;;
18425;SDS011;9340;48.756;9.226;2023-02-15T03:27:52;24.17;;;16.20;;
18425;SDS011;9340;48.756;9.226;2023-02-15T03:30:20;19.77;;;14.93;;
18425;SDS011;9340;48.756;9.226;2023-02-15T03:32:49;23.83;;;16.07;;
18425;SDS011;9340;48.756;9.226;2023-02-15T03:35:18;20.93;;;15.10;;
18425;SDS011;9340;48.756;9.226;2023-02-15T03:37:51;22.13;;;16.00;;
18425;SDS011;9340;48.756;9.226;2023-02-15T03:40:23;21.87;;;16.40;;
18425;SDS011;9340;48.756;9.226;2023-02-15T03:43:13;24.40;;;16.23;;
18425;SDS011;9340;48.756;9.226;2023-02-15T03:45:45;20.17;;;15.80;;
18425;SDS011;9340;48.756;9.226;2023-02-15T03:48:21;20.40;;;15.13;;
18425;SDS011;9340;48.756;9.226;2023-02-15T03:50:51;22.07;;;16.17;;
18425;SDS011;9340;48.756;9.226;2023-02-15T03:53:38;21.00;;;15.70;;
18425;SDS011;9340;48.756;9.226;2023-02-15T03:56:07;23.43;;;16.63;;
18425;SDS011;9340;48.756;9.226;2023-02-15T03:58:33;21.70;;;16.40;;
18425;SDS011;9340;48.756;9.226;2023-02-15T04:01:20;22.27;;;15.77;;
18425;SDS011;9340;48.756;9.226;2023-02-15T04:04:23;22.50;;;15.50;;
18425;SDS011;9340;48.756;9.226;2023-02-15T04:06:55;21.70;;;15.97;;
18425;SDS011;9340;48.756;9.226;2023-02-15T04:09:22;20.00;;;14.83;;
18425;SDS011;9340;48.756;9.226;2023-02-15T04:12:07;21.37;;;16.37;;
18425;SDS011;9340;48.756;9.226;2023-02-15T04:14:34;20.50;;;15.17;;
18425;SDS011;9340;48.756;9.226;2023-02-15T04:17:18;26.23;;;17.53;;
18425;SDS011;9340;48.756;9.226;2023-02-15T04:19:45;19.50;;;15.27;;
18425;SDS011;9340;48.756;9.226;2023-02-15T04:22:30;26.60;;;17.57;;
18425;SDS011;9340;48.756;9.226;2023-02-15T04:25:15;21.60;;;15.97;;
18425;SDS011;9340;48.756;9.226;2023-02-15T04:27:42;20.43;;;15.53;;
18425;SDS011;9340;48.756;9.226;2023-02-15T04:30:11;21.13;;;15.17;;
18425;SDS011;9340;48.756;9.226;2023-02-15T04:32:39;21.27;;;16.37;;
18425;SDS011;9340;48.756;9.226;2023-02-15T04:35:06;21.93;;;16.27;;
18425;SDS011;9340;48.756;9.226;2023-02-15T04:37:35;22.30;;;17.07;;
18425;SDS011;9340;48.756;9.226;2023-02-15T04:40:02;20.07;;;15.00;;
18425;SDS011;9340;48.756;9.226;2023-02-15T04:42:30;21.57;;;16.70;;
18425;SDS011;9340;48.756;9.226;2023-02-15T04:44:56;20.20;;;15.60;;
18425;SDS011;9340;48.756;9.226;2023-02-15T04:47:23;18.67;;;15.13;;
18425;SDS011;9340;48.756;9.226;2023-02-15T04:49:50;20.93;;;15.37;;
18425;SDS011;9340;48.756;9.226;2023-02-15T04:52:16;22.63;;;14.60;;
18425;SDS011;9340;48.756;9.226;2023-02-15T04:54:44;21.30;;;15.63;;
18425;SDS011;9340;48.756;9.226;2023-02-15T04:57:11;24.00;;;16.43;;
18425;SDS011;9340;48.756;9.226;2023-02-15T04:59:38;21.57;;;16.10;;
18425;SDS011;9340;48.756;9.226;2023-02-15T05:02:05;24.50;;;14.57;;
18425;SDS011;9340;48.756;9.226;2023-02-15T05:04:32;22.03;;;15.03;;
18425;SDS011;9340;48.756;9.226;2023-02-15T05:06:58;23.67;;;16.63;;
18425;SDS011;9340;48.756;9.226;2023-02-15T05:09:25;23.13;;;16.20;;
18425;SDS011;9340;48.756;9.226;2023-02-15T05:11:53;21.40;;;16.10;;
18425;SDS011;9340;48.756;9.226;2023-02-15T05:14:19;21.70;;;15.07;;
18425;SDS011;9340;48.756;9.226;2023-02-15T05:16:46;22.27;;;15.17;;
18425;SDS011;9340;48.756;9.226;2023-02-15T05:19:13;22.13;;;15.87;;
18425;SDS011;9340;48.756;9.226;2023-02-15T05:21:40;21.77;;;15.67;;
18425;SDS011;9340;48.756;9.226;2023-02-15T05:24:07;17.97;;;13.50;;
18425;SDS011;9340;48.756;9.226;2023-02-15T05:26:48;18.93;;;15.40;;
18425;SDS011;9340;48.756;9.226;2023-02-15T05:29:33;23.40;;;16.20;;
18425;SDS011;9340;48.756;9.226;2023-02-15T05:32:00;21.23;;;14.87;;
18425;SDS011;9340;48.756;9.226;2023-02-15T05:34:27;19.33;;;14.13;;
18425;SDS011;9340;48.756;9.226;2023-02-15T05:36:54;20.50;;;14.23;;
18425;SDS011;9340;48.756;9.226;2023-02-15T05:39:20;21.47;;;15.30;;
18425;SDS011;9340;48.756;9.226;2023-02-15T05:41:47;19.80;;;16.03;;
18425;SDS011;9340;48.756;9.226;2023-02-15T05:44:13;18.83;;;14.67;;
18425;SDS011;9340;48.756;9.226;2023-02-15T05:46:41;22.23;;;15.77;;
18425;SDS011;9340;48.756;9.226;2023-02-15T05:49:08;20.80;;;15.97;;
18425;SDS011;9340;48.756;9.226;2023-02-15T05:51:35;20.43;;;15.07;;
18425;SDS011;9340;48.756;9.226;2023-02-15T05:54:02;17.97;;;14.10;;
18425;SDS011;9340;48.756;9.226;2023-02-15T05:56:28;19.67;;;15.13;;
18425;SDS011;9340;48.756;9.226;2023-02-15T05:58:55;20.87;;;16.53;;
18425;SDS011;9340;48.756;9.226;2023-02-15T06:01:21;23.97;;;16.10;;
18425;SDS011;9340;48.756;9.226;2023-02-15T06:03:50;20.50;;;15.73;;
18425;SDS011;9340;48.756;9.226;2023-02-15T06:06:17;21.27;;;16.63;;
18425;SDS011;9340;48.756;9.226;2023-02-15T06:08:43;21.30;;;15.53;;
18425;SDS011;9340;48.756;9.226;2023-02-15T06:11:10;21.97;;;15.70;;
18425;SDS011;9340;48.756;9.226;2023-02-15T06:13:37;19.80;;;15.97;;
18425;SDS011;9340;48.756;9.226;2023-02-15T06:16:03;21.83;;;15.73;;
18425;SDS011;9340;48.756;9.226;2023-02-15T06:18:30;22.60;;;14.87;;
18425;SDS011;9340;48.756;9.226;2023-02-15T06:20:58;19.97;;;14.87;;
18425;SDS011;9340;48.756;9.226;2023-02-15T06:23:25;22.07;;;15.77;;
18425;SDS011;9340;48.756;9.226;2023-02-15T06:25:51;20.17;;;15.27;;
18425;SDS011;9340;48.756;9.226;2023-02-15T06:28:18;21.43;;;15.90;;
18425;SDS011;9340;48.756;9.226;2023-02-15T06:30:45;22.27;;;15.57;;
18425;SDS011;9340;48.756;9.226;2023-02-15T06:33:12;23.57;;;16.23;;
18425;SDS011;9340;48.756;9.226;2023-02-15T06:35:39;20.73;;;16.37;;
18425;SDS011;9340;48.756;9.226;2023-02-15T06:38:07;25.63;;;18.27;;
18425;SDS011;9340;48.756;9.226;2023-02-15T06:40:33;20.60;;;14.77;;
18425;SDS011;9340;48.756;9.226;2023-02-15T06:43:00;20.73;;;15.60;;
18425;SDS011;9340;48.756;9.226;2023-02-15T06:45:27;23.27;;;16.37;;
18425;SDS011;9340;48.756;9.226;2023-02-15T06:47:54;22.27;;;15.50;;
18425;SDS011;9340;48.756;9.226;2023-02-15T06:50:20;21.47;;;15.33;;
18425;SDS011;9340;48.756;9.226;2023-02-15T06:52:47;22.50;;;15.80;;
18425;SDS011;9340;48.756;9.226;2023-02-15T06:55:15;23.63;;;15.63;;
18425;SDS011;9340;48.756;9.226;2023-02-15T06:57:42;18.77;;;14.53;;
18425;SDS011;9340;48.756;9.226;2023-02-15T07:00:09;24.20;;;20.70;;
18425;SDS011;9340;48.756;9.226;2023-02-15T07:02:37;26.90;;;22.33;;
18425;SDS011;9340;48.756;9.226;2023-02-15T07:05:03;32.10;;;25.07;;
18425;SDS011;9340;48.756;9.226;2023-02-15T07:07:30;37.27;;;29.67;;
18425;SDS011;9340;48.756;9.226;2023-02-15T07:09:57;33.73;;;28.37;;
18425;SDS011;9340;48.756;9.226;2023-02-15T07:12:25;30.23;;;23.53;;
18425;SDS011;9340;48.756;9.226;2023-02-15T07:15:11;31.40;;;23.10;;
18425;SDS011;9340;48.756;9.226;2023-02-15T07:17:39;22.93;;;17.90;;
18425;SDS011;9340;48.756;9.226;2023-02-15T07:20:07;24.60;;;16.77;;
18425;SDS011;9340;48.756;9.226;2023-02-15T07:22:39;22.50;;;17.57;;
18425;SDS011;9340;48.756;9.226;2023-02-15T07:25:07;24.20;;;16.43;;
18425;SDS011;9340;48.756;9.226;2023-02-15T07:27:36;21.73;;;15.67;;
18425;SDS011;9340;48.756;9.226;2023-02-15T07:30:03;22.17;;;15.57;;
18425;SDS011;9340;48.756;9.226;2023-02-15T07:32:32;22.53;;;18.60;;
18425;SDS011;9340;48.756;9.226;2023-02-15T07:34:59;21.00;;;15.93;;
18425;SDS011;9340;48.756;9.226;2023-02-15T07:37:26;23.40;;;17.80;;
18425;SDS011;9340;48.756;9.226;2023-02-15T07:39:53;23.17;;;17.73;;
18425;SDS011;9340;48.756;9.226;2023-02-15T07:42:20;19.53;;;15.73;;
18425;SDS011;9340;48.756;9.226;2023-02-15T07:44:48;25.33;;;17.33;;
18425;SDS011;9340;48.756;9.226;2023-02-15T07:47:15;21.67;;;16.33;;
18425;SDS011;9340;48.756;9.226;2023-02-15T07:49:42;21.30;;;15.43;;
18425;SDS011;9340;48.756;9.226;2023-02-15T07:52:09;22.53;;;16.23;;
18425;SDS011;9340;48.756;9.226;2023-02-15T07:54:35;22.50;;;17.70;;
18425;SDS011;9340;48.756;9.226;2023-02-15T07:57:02;24.27;;;17.73;;
18425;SDS011;9340;48.756;9.226;2023-02-15T07:59:29;26.03;;;19.40;;
18425;SDS011;9340;48.756;9.226;2023-02-15T08:01:57;26.07;;;18.23;;
18425;SDS011;9340;48.756;9.226;2023-02-15T08:04:24;25.57;;;17.60;;
18425;SDS011;9340;48.756;9.226;2023-02-15T08:06:52;24.13;;;17.97;;
18425;SDS011;9340;48.756;9.226;2023-02-15T08:09:20;24.93;;;18.87;;
18425;SDS011;9340;48.756;9.226;2023-02-15T08:11:47;23.47;;;19.27;;
18425;SDS011;9340;48.756;9.226;2023-02-15T08:14:14;22.47;;;17.70;;
18425;SDS011;9340;48.756;9.226;2023-02-15T08:16:44;25.00;;;18.97;;
18425;SDS011;9340;48.756;9.226;2023-02-15T08:19:13;24.37;;;18.83;;
18425;SDS011;9340;48.756;9.226;2023-02-15T08:21:42;25.60;;;18.27;;
18425;SDS011;9340;48.756;9.226;2023-02-15T08:24:10;25.07;;;18.27;;
18425;SDS011;9340;48.756;9.226;2023-02-15T08:26:39;22.60;;;17.17;;
18425;SDS011;9340;48.756;9.226;2023-02-15T08:29:06;26.27;;;20.47;;
18425;SDS011;9340;48.756;9.226;2023-02-15T08:31:34;23.70;;;18.07;;
18425;SDS011;9340;48.756;9.226;2023-02-15T08:34:02;22.77;;;16.37;;
18425;SDS011;9340;48.756;9.226;2023-02-15T08:36:31;24.40;;;19.17;;
18425;SDS011;9340;48.756;9.226;2023-02-15T08:38:58;19.20;;;16.73;;
18425;SDS011;9340;48.756;9.226;2023-02-15T08:41:26;22.23;;;17.47;;
18425;SDS011;9340;48.756;9.226;2023-02-15T08:43:55;24.30;;;18.47;;
18425;SDS011;9340;48.756;9.226;2023-02-15T08:46:24;21.67;;;17.27;;
18425;SDS011;9340;48.756;9.226;2023-02-15T08:48:53;23.60;;;18.00;;
18425;SDS011;9340;48.756;9.226;2023-02-15T08:51:21;24.43;;;18.27;;
18425;SDS011;9340;48.756;9.226;2023-02-15T08:53:51;28.93;;;18.67;;
18425;SDS011;9340;48.756;9.226;2023-02-15T08:56:20;24.17;;;19.13;;
18425;SDS011;9340;48.756;9.226;2023-02-15T08:58:49;26.37;;;20.00;;
18425;SDS011;9340;48.756;9.226;2023-02-15T09:01:16;27.97;;;20.03;;
18425;SDS011;9340;48.756;9.226;2023-02-15T09:03:46;24.17;;;17.47;;
18425;SDS011;9340;48.756;9.226;2023-02-15T09:06:14;25.83;;;18.63;;
18425;SDS011;9340;48.756;9.226;2023-02-15T09:08:41;26.70;;;18.27;;
18425;SDS011;9340;48.756;9.226;2023-02-15T09:11:10;24.00;;;18.63;;
18425;SDS011;9340;48.756;9.226;2023-02-15T09:13:41;23.07;;;18.10;;
18425;SDS011;9340;48.756;9.226;2023-02-15T09:16:09;26.53;;;18.93;;
18425;SDS011;9340;48.756;9.226;2023-02-15T09:18:36;51.30;;;34.47;;
18425;SDS011;9340;48.756;9.226;2023-02-15T09:21:05;30.43;;;22.47;;
18425;SDS011;9340;48.756;9.226;2023-02-15T09:23:33;26.57;;;21.33;;
18425;SDS011;9340;48.756;9.226;2023-02-15T09:26:03;25.03;;;17.23;;
18425;SDS011;9340;48.756;9.226;2023-02-15T09:28:34;25.63;;;19.47;;
18425;SDS011;9340;48.756;9.226;2023-02-15T09:31:04;26.17;;;20.73;;
18425;SDS011;9340;48.756;9.226;2023-02-15T09:33:32;27.23;;;18.50;;
18425;SDS011;9340;48.756;9.226;2023-02-15T09:36:00;24.70;;;18.50;;
18425;SDS011;9340;48.756;9.226;2023-02-15T09:38:27;26.13;;;18.63;;
18425;SDS011;9340;48.756;9.226;2023-02-15T09:40:56;28.07;;;19.87;;
18425;SDS011;9340;48.756;9.226;2023-02-15T09:43:36;31.33;;;24.50;;
18425;SDS011;9340;48.756;9.226;2023-02-15T09:46:12;23.30;;;18.93;;
18425;SDS011;9340;48.756;9.226;2023-02-15T09:48:53;25.40;;;20.17;;
18425;SDS011;9340;48.756;9.226;2023-02-15T09:54:35;29.27;;;19.63;;
18425;SDS011;9340;48.756;9.226;2023-02-15T09:57:16;27.97;;;21.60;;
18425;SDS011;9340;48.756;9.226;2023-02-15T09:59:51;27.83;;;19.50;;
18425;SDS011;9340;48.756;9.226;2023-02-15T10:02:27;29.73;;;20.87;;
18425;SDS011;9340;48.756;9.226;2023-02-15T10:05:08;29.63;;;20.33;;
18425;SDS011;9340;48.756;9.226;2023-02-15T10:10:42;28.67;;;18.77;;
18425;SDS011;9340;48.756;9.226;2023-02-15T10:13:21;26.97;;;20.63;;
18425;SDS011;9340;48.756;9.226;2023-02-15T10:16:00;28.37;;;20.00;;
18425;SDS011;9340;48.756;9.226;2023-02-15T10:18:42;25.60;;;19.03;;
18425;SDS011;9340;48.756;9.226;2023-02-15T10:21:18;24.27;;;19.47;;
18425;SDS011;9340;48.756;9.226;2023-02-15T10:23:59;27.73;;;20.70;;
18425;SDS011;9340;48.756;9.226;2023-02-15T10:26:42;23.50;;;19.23;;
18425;SDS011;9340;48.756;9.226;2023-02-15T10:29:12;25.17;;;20.07;;
18425;SDS011;9340;48.756;9.226;2023-02-15T10:31:55;27.03;;;20.13;;
18425;SDS011;9340;48.756;9.226;2023-02-15T10:34:31;24.70;;;19.87;;
18425;SDS011;9340;48.756;9.226;2023-02-15T10:39:56;23.30;;;18.60;;
18425;SDS011;9340;48.756;9.226;2023-02-15T10:42:29;22.83;;;17.97;;
18425;SDS011;9340;48.756;9.226;2023-02-15T10:45:07;23.83;;;18.70;;
18425;SDS011;9340;48.756;9.226;2023-02-15T10:47:56;22.37;;;17.67;;
18425;SDS011;9340;48.756;9.226;2023-02-15T10:50:35;20.93;;;17.77;;
18425;SDS011;9340;48.756;9.226;2023-02-15T10:53:14;27.83;;;20.53;;
18425;SDS011;9340;48.756;9.226;2023-02-15T10:56:01;21.87;;;16.40;;
18425;SDS011;9340;48.756;9.226;2023-02-15T10:58:41;22.80;;;17.70;;
18425;SDS011;9340;48.756;9.226;2023-02-15T11:01:21;22.80;;;17.97;;
18425;SDS011;9340;48.756;9.226;2023-02-15T11:04:02;23.23;;;18.77;;
18425;SDS011;9340;48.756;9.226;2023-02-15T11:06:54;20.30;;;16.97;;
18425;SDS011;9340;48.756;9.226;2023-02-15T11:09:25;20.23;;;16.60;;
18425;SDS011;9340;48.756;9.226;2023-02-15T11:11:59;22.97;;;16.73;;
18425;SDS011;9340;48.756;9.226;2023-02-15T11:14:27;19.90;;;17.80;;
18425;SDS011;9340;48.756;9.226;2023-02-15T11:17:02;21.87;;;15.53;;
18425;SDS011;9340;48.756;9.226;2023-02-15T11:19:35;20.40;;;16.30;;
18425;SDS011;9340;48.756;9.226;2023-02-15T11:22:09;21.83;;;17.07;;
18425;SDS011;9340;48.756;9.226;2023-02-15T11:24:43;19.20;;;16.20;;
18425;SDS011;9340;48.756;9.226;2023-02-15T11:27:16;20.03;;;16.57;;
18425;SDS011;9340;48.756;9.226;2023-02-15T11:29:48;18.27;;;15.60;;
18425;SDS011;9340;48.756;9.226;2023-02-15T11:32:21;18.83;;;16.37;;
18425;SDS011;9340;48.756;9.226;2023-02-15T11:34:53;20.83;;;17.43;;
18425;SDS011;9340;48.756;9.226;2023-02-15T11:37:24;17.43;;;15.33;;
18425;SDS011;9340;48.756;9.226;2023-02-15T11:39:55;21.50;;;17.03;;
18425;SDS011;9340;48.756;9.226;2023-02-15T11:42:23;20.87;;;15.77;;
18425;SDS011;9340;48.756;9.226;2023-02-15T11:44:54;18.73;;;16.43;;
18425;SDS011;9340;48.756;9.226;2023-02-15T11:47:25;20.77;;;16.70;;
18425;SDS011;9340;48.756;9.226;2023-02-15T11:49:53;22.13;;;17.10;;
18425;SDS011;9340;48.756;9.226;2023-02-15T11:52:20;20.27;;;17.30;;
18425;SDS011;9340;48.756;9.226;2023-02-15T11:54:48;20.07;;;17.17;;
18425;SDS011;9340;48.756;9.226;2023-02-15T11:57:17;21.33;;;16.90;;
18425;SDS011;9340;48.756;9.226;2023-02-15T11:59:49;21.30;;;18.27;;
18425;SDS011;9340;48.756;9.226;2023-02-15T12:02:22;23.23;;;18.77;;
18425;SDS011;9340;48.756;9.226;2023-02-15T12:04:52;19.97;;;17.50;;
18425;SDS011;9340;48.756;9.226;2023-02-15T12:07:24;29.10;;;23.23;;
18425;SDS011;9340;48.756;9.226;2023-02-15T12:09:55;20.57;;;18.37;;
18425;SDS011;9340;48.756;9.226;2023-02-15T12:12:29;21.90;;;16.87;;
18425;SDS011;9340;48.756;9.226;2023-02-15T12:14:58;22.03;;;17.83;;
18425;SDS011;9340;48.756;9.226;2023-02-15T12:17:26;23.23;;;18.33;;
18425;SDS011;9340;48.756;9.226;2023-02-15T12:19:56;19.93;;;17.37;;
18425;SDS011;9340;48.756;9.226;2023-02-15T12:22:27;22.20;;;18.30;;
18425;SDS011;9340;48.756;9.226;2023-02-15T12:24:57;22.23;;;17.13;;
18425;SDS011;9340;48.756;9.226;2023-02-15T12:27:26;21.60;;;18.27;;
18425;SDS011;9340;48.756;9.226;2023-02-15T12:29:56;21.57;;;18.17;;
18425;SDS011;9340;48.756;9.226;2023-02-15T12:32:26;21.77;;;18.10;;
18425;SDS011;9340;48.756;9.226;2023-02-15T12:34:59;22.03;;;17.50;;
18425;SDS011;9340;48.756;9.226;2023-02-15T12:37:32;19.03;;;16.90;;
18425;SDS011;9340;48.756;9.226;2023-02-15T12:40:00;20.23;;;17.50;;
18425;SDS011;9340;48.756;9.226;2023-02-15T12:42:41;19.23;;;16.80;;
18425;SDS011;9340;48.756;9.226;2023-02-15T12:45:20;19.93;;;17.83;;
18425;SDS011;9340;48.756;9.226;2023-02-15T12:47:50;20.13;;;17.13;;
18425;SDS011;9340;48.756;9.226;2023-02-15T12:50:36;22.20;;;17.50;;
18425;SDS011;9340;48.756;9.226;2023-02-15T12:53:06;20.13;;;16.80;;
18425;SDS011;9340;48.756;9.226;2023-02-15T12:55:34;19.70;;;17.70;;
18425;SDS011;9340;48.756;9.226;2023-02-15T12:58:05;20.03;;;17.93;;
18425;SDS011;9340;48.756;9.226;2023-02-15T13:00:32;21.10;;;17.13;;
18425;SDS011;9340;48.756;9.226;2023-02-15T13:03:00;20.07;;;17.60;;
18425;SDS011;9340;48.756;9.226;2023-02-15T13:05:30;22.27;;;17.70;;
18425;SDS011;9340;48.756;9.226;2023-02-15T13:08:01;24.83;;;17.47;;
18425;SDS011;9340;48.756;9.226;2023-02-15T13:10:35;42.60;;;28.90;;
18425;SDS011;9340;48.756;9.226;2023-02-15T13:13:08;23.97;;;19.23;;
18425;SDS011;9340;48.756;9.226;2023-02-15T13:15:37;22.50;;;18.73;;
18425;SDS011;9340;48.756;9.226;2023-02-15T13:18:10;36.00;;;32.37;;
18425;SDS011;9340;48.756;9.226;2023-02-15T13:20:38;21.67;;;18.40;;
18425;SDS011;9340;48.756;9.226;2023-02-15T13:23:13;22.33;;;19.03;;
18425;SDS011;9340;48.756;9.226;2023-02-15T13:25:52;22.10;;;19.07;;
18425;SDS011;9340;48.756;9.226;2023-02-15T13:28:22;22.00;;;18.67;;
18425;SDS011;9340;48.756;9.226;2023-02-15T13:30:57;24.70;;;20.77;;
18425;SDS011;9340;48.756;9.226;2023-02-15T13:33:25;25.67;;;20.43;;
18425;SDS011;9340;48.756;9.226;2023-02-15T13:35:56;20.93;;;18.73;;
18425;SDS011;9340;48.756;9.226;2023-02-15T13:38:43;21.17;;;17.93;;
18425;SDS011;9340;48.756;9.226;2023-02-15T13:41:16;21.73;;;18.63;;
18425;SDS011;9340;48.756;9.226;2023-02-15T13:43:50;21.93;;;19.03;;
18425;SDS011;9340;48.756;9.226;2023-02-15T13:46:31;24.00;;;19.63;;
18425;SDS011;9340;48.756;9.226;2023-02-15T13:49:13;19.80;;;17.60;;
18425;SDS011;9340;48.756;9.226;2023-02-15T13:51:47;19.17;;;16.40;;
18425;SDS011;9340;48.756;9.226;2023-02-15T13:54:27;22.20;;;17.63;;
18425;SDS011;9340;48.756;9.226;2023-02-15T14:00:17;18.90;;;16.90;;
18425;SDS011;9340;48.756;9.226;2023-02-15T14:02:53;21.50;;;17.30;;
18425;SDS011;9340;48.756;9.226;2023-02-15T14:05:34;19.13;;;17.13;;
18425;SDS011;9340;48.756;9.226;2023-02-15T14:08:17;21.40;;;16.70;;
18425;SDS011;9340;48.756;9.226;2023-02-15T14:11:05;17.90;;;16.07;;
18425;SDS011;9340;48.756;9.226;2023-02-15T14:13:44;20.53;;;17.30;;
18425;SDS011;9340;48.756;9.226;2023-02-15T14:16:34;16.10;;;14.33;;
18425;SDS011;9340;48.756;9.226;2023-02-15T14:19:10;18.77;;;16.73;;
18425;SDS011;9340;48.756;9.226;2023-02-15T14:21:46;17.43;;;14.77;;
18425;SDS011;9340;48.756;9.226;2023-02-15T14:24:21;21.20;;;14.63;;
18425;SDS011;9340;48.756;9.226;2023-02-15T14:26:59;17.70;;;15.37;;
18425;SDS011;9340;48.756;9.226;2023-02-15T14:29:38;15.83;;;14.33;;
18425;SDS011;9340;48.756;9.226;2023-02-15T14:32:13;18.00;;;14.73;;
18425;SDS011;9340;48.756;9.226;2023-02-15T14:34:46;18.83;;;15.73;;
18425;SDS011;9340;48.756;9.226;2023-02-15T14:37:17;21.13;;;16.93;;
18425;SDS011;9340;48.756;9.226;2023-02-15T14:39:48;32.90;;;23.97;;
18425;SDS011;9340;48.756;9.226;2023-02-15T14:42:42;22.00;;;16.80;;
18425;SDS011;9340;48.756;9.226;2023-02-15T14:45:19;19.40;;;16.20;;
18425;SDS011;9340;48.756;9.226;2023-02-15T14:47:52;20.73;;;16.63;;
18425;SDS011;9340;48.756;9.226;2023-02-15T14:50:38;20.30;;;16.47;;
18425;SDS011;9340;48.756;9.226;2023-02-15T14:53:20;19.97;;;16.67;;
18425;SDS011;9340;48.756;9.226;2023-02-15T14:56:25;17.20;;;15.37;;
18425;SDS011;9340;48.756;9.226;2023-02-15T14:59:01;19.80;;;15.47;;
18425;SDS011;9340;48.756;9.226;2023-02-15T15:01:52;23.73;;;20.30;;
18425;SDS011;9340;48.756;9.226;2023-02-15T15:04:24;29.53;;;23.90;;
18425;SDS011;9340;48.756;9.226;2023-02-15T15:06:57;22.80;;;20.43;;
18425;SDS011;9340;48.756;9.226;2023-02-15T15:09:29;27.33;;;23.47;;
18425;SDS011;9340;48.756;9.226;2023-02-15T15:12:12;23.43;;;17.97;;